sensor_id;sensor_type;location;lat;lon;timestamp;pressure;altitude;pressure_sealevel;temperature;humidity
20752;BME280;10536;51.582;5.016;2022-10-16T00:04:31;100987.63;;;16.28;100.00
20752;BME280;10536;51.582;5.016;2022-10-16T00:09:31;101000.88;;;16.22;100.00
20752;BME280;10536;51.582;5.016;2022-10-16T00:14:32;100993.16;;;16.18;100.00
20752;BME280;10536;51.582;5.016;2022-10-16T00:19:32;100995.75;;;16.18;100.00
20752;BME280;10536;51.582;5.016;2022-10-16T00:24:32;100992.94;;;16.25;100.00
20752;BME280;10536;51.582;5.016;2022-10-16T00:29:33;100989.97;;;16.35;100.00
20752;BME280;10536;51.582;5.016;2022-10-16T00:34:34;100975.19;;;16.34;100.00
20752;BME280;10536;51.582;5.016;2022-10-16T00:39:34;100976.84;;;16.38;100.00
20752;BME280;10536;51.582;5.016;2022-10-16T00:44:50;100986.53;;;16.35;100.00
20752;BME280;10536;51.582;5.016;2022-10-16T00:49:56;100996.44;;;16.50;100.00
20752;BME280;10536;51.582;5.016;2022-10-16T00:54:59;100987.63;;;16.78;100.00
20752;BME280;10536;51.582;5.016;2022-10-16T01:00:00;101001.75;;;16.47;100.00
20752;BME280;10536;51.582;5.016;2022-10-16T01:05:02;100996.25;;;16.55;100.00
20752;BME280;10536;51.582;5.016;2022-10-16T01:15:35;100994.47;;;16.82;100.00
20752;BME280;10536;51.582;5.016;2022-10-16T01:20:45;100993.19;;;16.92;100.00
20752;BME280;10536;51.582;5.016;2022-10-16T01:31:08;100993.19;;;16.92;100.00
20752;BME280;10536;51.582;5.016;2022-10-16T01:36:18;100990.41;;;16.97;100.00
20752;BME280;10536;51.582;5.016;2022-10-16T01:41:26;100988.16;;;16.63;100.00
20752;BME280;10536;51.582;5.016;2022-10-16T01:46:31;100986.16;;;16.69;100.00
20752;BME280;10536;51.582;5.016;2022-10-16T01:51:34;100987.38;;;16.61;100.00
20752;BME280;10536;51.582;5.016;2022-10-16T01:56:36;101001.31;;;16.59;100.00
20752;BME280;10536;51.582;5.016;2022-10-16T02:01:40;100991.13;;;16.52;100.00
20752;BME280;10536;51.582;5.016;2022-10-16T02:06:42;101004.59;;;16.41;100.00
20752;BME280;10536;51.582;5.016;2022-10-16T02:11:44;101011.97;;;16.28;100.00
20752;BME280;10536;51.582;5.016;2022-10-16T02:16:46;101005.06;;;16.27;100.00
20752;BME280;10536;51.582;5.016;2022-10-16T02:21:58;100998.78;;;16.58;100.00
20752;BME280;10536;51.582;5.016;2022-10-16T02:32:39;101002.50;;;16.76;100.00
20752;BME280;10536;51.582;5.016;2022-10-16T02:37:42;101009.00;;;16.64;100.00
20752;BME280;10536;51.582;5.016;2022-10-16T02:42:43;100995.47;;;16.53;100.00
20752;BME280;10536;51.582;5.016;2022-10-16T02:47:43;100995.72;;;16.45;100.00
20752;BME280;10536;51.582;5.016;2022-10-16T02:52:44;100989.72;;;16.43;100.00
20752;BME280;10536;51.582;5.016;2022-10-16T02:57:44;100987.16;;;16.42;100.00
20752;BME280;10536;51.582;5.016;2022-10-16T03:02:45;101001.59;;;16.27;100.00
20752;BME280;10536;51.582;5.016;2022-10-16T03:07:46;100985.81;;;16.30;100.00
20752;BME280;10536;51.582;5.016;2022-10-16T03:12:47;100983.16;;;16.31;100.00
20752;BME280;10536;51.582;5.016;2022-10-16T03:17:47;101005.69;;;16.34;100.00
20752;BME280;10536;51.582;5.016;2022-10-16T03:22:48;101024.53;;;16.17;100.00
20752;BME280;10536;51.582;5.016;2022-10-16T03:27:48;101022.47;;;16.27;100.00
20752;BME280;10536;51.582;5.016;2022-10-16T03:32:49;101029.63;;;16.20;100.00
20752;BME280;10536;51.582;5.016;2022-10-16T03:37:54;101014.13;;;15.89;100.00
20752;BME280;10536;51.582;5.016;2022-10-16T03:42:54;101043.56;;;15.94;100.00
20752;BME280;10536;51.582;5.016;2022-10-16T03:47:57;101049.81;;;15.88;100.00
20752;BME280;10536;51.582;5.016;2022-10-16T03:52:58;101047.19;;;15.88;100.00
20752;BME280;10536;51.582;5.016;2022-10-16T03:57:58;101049.63;;;15.94;100.00
20752;BME280;10536;51.582;5.016;2022-10-16T04:02:59;101051.47;;;16.17;100.00
20752;BME280;10536;51.582;5.016;2022-10-16T04:07:59;101053.53;;;16.08;100.00
20752;BME280;10536;51.582;5.016;2022-10-16T04:12:59;101051.13;;;16.02;100.00
20752;BME280;10536;51.582;5.016;2022-10-16T04:18:00;101066.16;;;15.93;100.00
20752;BME280;10536;51.582;5.016;2022-10-16T04:23:00;101061.03;;;15.90;100.00
20752;BME280;10536;51.582;5.016;2022-10-16T04:28:01;101060.59;;;16.04;100.00
20752;BME280;10536;51.582;5.016;2022-10-16T04:33:01;101072.38;;;15.89;100.00
20752;BME280;10536;51.582;5.016;2022-10-16T04:38:02;101090.78;;;15.85;100.00
20752;BME280;10536;51.582;5.016;2022-10-16T04:43:03;101095.38;;;15.76;100.00
20752;BME280;10536;51.582;5.016;2022-10-16T04:48:04;101094.38;;;15.81;100.00
20752;BME280;10536;51.582;5.016;2022-10-16T04:53:05;101105.81;;;15.76;100.00
20752;BME280;10536;51.582;5.016;2022-10-16T04:58:06;101098.53;;;15.88;100.00
20752;BME280;10536;51.582;5.016;2022-10-16T05:03:06;101096.50;;;15.97;100.00
20752;BME280;10536;51.582;5.016;2022-10-16T05:08:08;101098.16;;;15.70;100.00
20752;BME280;10536;51.582;5.016;2022-10-16T05:13:09;101118.28;;;15.95;100.00
20752;BME280;10536;51.582;5.016;2022-10-16T05:18:10;101130.13;;;16.05;100.00
20752;BME280;10536;51.582;5.016;2022-10-16T05:23:10;101139.88;;;16.00;100.00
20752;BME280;10536;51.582;5.016;2022-10-16T05:28:11;101137.16;;;16.03;100.00
20752;BME280;10536;51.582;5.016;2022-10-16T05:33:12;101145.06;;;16.02;100.00
20752;BME280;10536;51.582;5.016;2022-10-16T05:38:13;101154.03;;;15.91;100.00
20752;BME280;10536;51.582;5.016;2022-10-16T05:43:13;101160.75;;;16.00;100.00
20752;BME280;10536;51.582;5.016;2022-10-16T05:48:14;101172.19;;;15.96;100.00
20752;BME280;10536;51.582;5.016;2022-10-16T05:53:14;101184.13;;;16.03;100.00
20752;BME280;10536;51.582;5.016;2022-10-16T05:58:15;101189.19;;;16.09;100.00
20752;BME280;10536;51.582;5.016;2022-10-16T06:03:15;101198.28;;;15.96;100.00
20752;BME280;10536;51.582;5.016;2022-10-16T06:08:16;101205.22;;;15.95;100.00
20752;BME280;10536;51.582;5.016;2022-10-16T06:13:17;101209.50;;;15.98;100.00
20752;BME280;10536;51.582;5.016;2022-10-16T06:18:17;101220.72;;;16.02;100.00
20752;BME280;10536;51.582;5.016;2022-10-16T06:23:18;101217.16;;;16.04;100.00
20752;BME280;10536;51.582;5.016;2022-10-16T06:28:18;101234.25;;;16.14;100.00
20752;BME280;10536;51.582;5.016;2022-10-16T06:33:18;101230.09;;;16.37;100.00
20752;BME280;10536;51.582;5.016;2022-10-16T06:38:19;101240.34;;;16.43;100.00
20752;BME280;10536;51.582;5.016;2022-10-16T06:43:19;101238.06;;;16.32;100.00
20752;BME280;10536;51.582;5.016;2022-10-16T06:48:20;101250.06;;;16.38;100.00
20752;BME280;10536;51.582;5.016;2022-10-16T06:53:21;101254.00;;;16.51;100.00
20752;BME280;10536;51.582;5.016;2022-10-16T06:58:21;101260.28;;;16.74;100.00
20752;BME280;10536;51.582;5.016;2022-10-16T07:03:22;101283.16;;;16.95;100.00
20752;BME280;10536;51.582;5.016;2022-10-16T07:08:22;101299.72;;;16.94;100.00
20752;BME280;10536;51.582;5.016;2022-10-16T07:13:23;101303.97;;;16.97;100.00
20752;BME280;10536;51.582;5.016;2022-10-16T07:18:23;101307.78;;;17.15;100.00
20752;BME280;10536;51.582;5.016;2022-10-16T07:23:26;101314.69;;;17.16;100.00
20752;BME280;10536;51.582;5.016;2022-10-16T07:28:27;101322.19;;;17.00;100.00
20752;BME280;10536;51.582;5.016;2022-10-16T07:33:28;101329.38;;;16.93;100.00
20752;BME280;10536;51.582;5.016;2022-10-16T07:38:29;101329.44;;;17.19;100.00
20752;BME280;10536;51.582;5.016;2022-10-16T07:43:29;101340.75;;;17.19;100.00
20752;BME280;10536;51.582;5.016;2022-10-16T07:48:32;101345.31;;;17.39;100.00
20752;BME280;10536;51.582;5.016;2022-10-16T07:53:33;101361.53;;;17.22;100.00
20752;BME280;10536;51.582;5.016;2022-10-16T07:58:34;101368.63;;;17.72;100.00
20752;BME280;10536;51.582;5.016;2022-10-16T08:03:37;101375.56;;;17.48;100.00
20752;BME280;10536;51.582;5.016;2022-10-16T08:08:37;101397.13;;;17.54;100.00
20752;BME280;10536;51.582;5.016;2022-10-16T08:13:38;101395.38;;;17.80;100.00
20752;BME280;10536;51.582;5.016;2022-10-16T08:18:40;101397.06;;;18.08;100.00
20752;BME280;10536;51.582;5.016;2022-10-16T08:23:40;101411.53;;;18.18;100.00
20752;BME280;10536;51.582;5.016;2022-10-16T08:28:41;101415.28;;;17.86;100.00
20752;BME280;10536;51.582;5.016;2022-10-16T08:33:43;101433.03;;;17.76;100.00
20752;BME280;10536;51.582;5.016;2022-10-16T08:38:47;101434.69;;;18.05;100.00
20752;BME280;10536;51.582;5.016;2022-10-16T08:44:08;101432.91;;;18.31;100.00
20752;BME280;10536;51.582;5.016;2022-10-16T08:49:17;101431.50;;;18.22;100.00
20752;BME280;10536;51.582;5.016;2022-10-16T08:54:28;101436.97;;;18.40;100.00
20752;BME280;10536;51.582;5.016;2022-10-16T08:59:30;101453.00;;;18.55;100.00
20752;BME280;10536;51.582;5.016;2022-10-16T09:10:11;101455.84;;;18.73;100.00
20752;BME280;10536;51.582;5.016;2022-10-16T09:20:57;101452.97;;;19.04;100.00
20752;BME280;10536;51.582;5.016;2022-10-16T09:26:02;101469.06;;;19.17;100.00
20752;BME280;10536;51.582;5.016;2022-10-16T09:31:04;101468.06;;;19.43;100.00
20752;BME280;10536;51.582;5.016;2022-10-16T09:36:05;101471.31;;;19.48;100.00
20752;BME280;10536;51.582;5.016;2022-10-16T09:41:21;101474.28;;;19.63;100.00
20752;BME280;10536;51.582;5.016;2022-10-16T09:46:35;101473.88;;;19.94;100.00
20752;BME280;10536;51.582;5.016;2022-10-16T09:51:37;101479.88;;;19.76;100.00
20752;BME280;10536;51.582;5.016;2022-10-16T09:56:38;101485.88;;;19.57;100.00
20752;BME280;10536;51.582;5.016;2022-10-16T10:01:47;101477.06;;;19.58;100.00
20752;BME280;10536;51.582;5.016;2022-10-16T10:06:50;101483.63;;;19.68;100.00
20752;BME280;10536;51.582;5.016;2022-10-16T10:11:55;101486.22;;;19.92;100.00
20752;BME280;10536;51.582;5.016;2022-10-16T10:27:35;101511.75;;;20.50;100.00
20752;BME280;10536;51.582;5.016;2022-10-16T10:43:46;101522.22;;;20.51;100.00
20752;BME280;10536;51.582;5.016;2022-10-16T10:49:12;101524.56;;;20.58;100.00
20752;BME280;10536;51.582;5.016;2022-10-16T10:54:51;101532.53;;;20.77;100.00
20752;BME280;10536;51.582;5.016;2022-10-16T11:05:44;101525.50;;;20.57;100.00
20752;BME280;10536;51.582;5.016;2022-10-16T11:10:53;101537.81;;;20.96;100.00
20752;BME280;10536;51.582;5.016;2022-10-16T11:15:58;101540.59;;;21.12;100.00
20752;BME280;10536;51.582;5.016;2022-10-16T11:21:04;101532.00;;;21.27;100.00
20752;BME280;10536;51.582;5.016;2022-10-16T11:26:11;101540.00;;;21.44;100.00
20752;BME280;10536;51.582;5.016;2022-10-16T11:31:19;101548.63;;;21.27;100.00
20752;BME280;10536;51.582;5.016;2022-10-16T11:36:36;101538.13;;;21.27;100.00
20752;BME280;10536;51.582;5.016;2022-10-16T11:41:52;101542.66;;;21.43;100.00
20752;BME280;10536;51.582;5.016;2022-10-16T11:52:13;101549.84;;;21.20;100.00
20752;BME280;10536;51.582;5.016;2022-10-16T11:57:32;101546.78;;;21.67;100.00
20752;BME280;10536;51.582;5.016;2022-10-16T12:08:01;101552.66;;;22.09;100.00
20752;BME280;10536;51.582;5.016;2022-10-16T12:18:28;101569.44;;;22.06;100.00
20752;BME280;10536;51.582;5.016;2022-10-16T12:23:28;101561.59;;;22.41;100.00
20752;BME280;10536;51.582;5.016;2022-10-16T12:28:31;101566.53;;;22.30;100.00
20752;BME280;10536;51.582;5.016;2022-10-16T12:33:59;101558.31;;;22.19;100.00
20752;BME280;10536;51.582;5.016;2022-10-16T12:39:01;101564.50;;;22.18;100.00
20752;BME280;10536;51.582;5.016;2022-10-16T12:44:02;101570.31;;;21.89;100.00
20752;BME280;10536;51.582;5.016;2022-10-16T12:54:27;101552.13;;;21.66;100.00
20752;BME280;10536;51.582;5.016;2022-10-16T12:59:55;101557.66;;;21.41;100.00
20752;BME280;10536;51.582;5.016;2022-10-16T13:05:11;101547.69;;;21.28;100.00
20752;BME280;10536;51.582;5.016;2022-10-16T13:10:24;101570.69;;;21.44;100.00
20752;BME280;10536;51.582;5.016;2022-10-16T13:15:55;101564.63;;;21.42;100.00
20752;BME280;10536;51.582;5.016;2022-10-16T13:21:14;101564.78;;;21.58;100.00
20752;BME280;10536;51.582;5.016;2022-10-16T13:26:33;101574.94;;;21.65;100.00
20752;BME280;10536;51.582;5.016;2022-10-16T13:31:37;101587.22;;;21.47;100.00
20752;BME280;10536;51.582;5.016;2022-10-16T13:36:48;101580.75;;;21.55;100.00
20752;BME280;10536;51.582;5.016;2022-10-16T13:42:04;101574.88;;;21.67;100.00
20752;BME280;10536;51.582;5.016;2022-10-16T13:47:05;101570.41;;;21.50;100.00
20752;BME280;10536;51.582;5.016;2022-10-16T13:52:17;101577.88;;;21.59;100.00
20752;BME280;10536;51.582;5.016;2022-10-16T13:57:22;101574.41;;;21.59;100.00
20752;BME280;10536;51.582;5.016;2022-10-16T14:02:33;101575.66;;;21.69;100.00
20752;BME280;10536;51.582;5.016;2022-10-16T14:07:36;101578.78;;;21.77;100.00
20752;BME280;10536;51.582;5.016;2022-10-16T14:12:37;101572.84;;;21.91;100.00
20752;BME280;10536;51.582;5.016;2022-10-16T14:17:43;101563.84;;;21.78;100.00
20752;BME280;10536;51.582;5.016;2022-10-16T14:22:44;101586.91;;;21.54;100.00
20752;BME280;10536;51.582;5.016;2022-10-16T14:27:57;101582.34;;;21.76;100.00
20752;BME280;10536;51.582;5.016;2022-10-16T14:33:05;101561.66;;;21.68;100.00
20752;BME280;10536;51.582;5.016;2022-10-16T14:38:18;101575.78;;;21.85;100.00
20752;BME280;10536;51.582;5.016;2022-10-16T14:43:22;101574.03;;;21.66;100.00
20752;BME280;10536;51.582;5.016;2022-10-16T14:48:24;101567.66;;;21.53;100.00
20752;BME280;10536;51.582;5.016;2022-10-16T14:53:25;101574.16;;;21.63;100.00
20752;BME280;10536;51.582;5.016;2022-10-16T14:58:25;101569.69;;;21.65;100.00
20752;BME280;10536;51.582;5.016;2022-10-16T15:03:26;101565.97;;;21.69;100.00
20752;BME280;10536;51.582;5.016;2022-10-16T15:08:27;101568.34;;;21.57;100.00
20752;BME280;10536;51.582;5.016;2022-10-16T15:13:27;101558.28;;;21.84;100.00
20752;BME280;10536;51.582;5.016;2022-10-16T15:18:28;101576.06;;;21.79;100.00
20752;BME280;10536;51.582;5.016;2022-10-16T15:23:28;101572.75;;;21.93;100.00
20752;BME280;10536;51.582;5.016;2022-10-16T15:28:29;101558.13;;;21.87;100.00
20752;BME280;10536;51.582;5.016;2022-10-16T15:33:29;101572.53;;;21.80;100.00
20752;BME280;10536;51.582;5.016;2022-10-16T15:38:33;101564.63;;;21.80;100.00
20752;BME280;10536;51.582;5.016;2022-10-16T15:43:33;101569.63;;;21.48;100.00
20752;BME280;10536;51.582;5.016;2022-10-16T15:48:34;101572.16;;;21.30;100.00
20752;BME280;10536;51.582;5.016;2022-10-16T15:53:35;101574.81;;;21.12;100.00
20752;BME280;10536;51.582;5.016;2022-10-16T15:58:35;101549.91;;;21.00;100.00
20752;BME280;10536;51.582;5.016;2022-10-16T16:03:37;101551.19;;;21.10;100.00
20752;BME280;10536;51.582;5.016;2022-10-16T16:08:40;101560.53;;;21.17;100.00
20752;BME280;10536;51.582;5.016;2022-10-16T16:13:41;101568.22;;;20.82;100.00
20752;BME280;10536;51.582;5.016;2022-10-16T16:18:42;101570.16;;;20.36;100.00
20752;BME280;10536;51.582;5.016;2022-10-16T16:23:42;101563.25;;;20.54;100.00
20752;BME280;10536;51.582;5.016;2022-10-16T16:28:43;101567.53;;;20.36;100.00
20752;BME280;10536;51.582;5.016;2022-10-16T16:33:44;101569.69;;;20.26;100.00
20752;BME280;10536;51.582;5.016;2022-10-16T16:38:45;101568.31;;;20.18;100.00
20752;BME280;10536;51.582;5.016;2022-10-16T16:43:46;101566.78;;;20.12;100.00
20752;BME280;10536;51.582;5.016;2022-10-16T16:48:48;101580.94;;;20.30;100.00
20752;BME280;10536;51.582;5.016;2022-10-16T16:53:54;101590.22;;;20.17;100.00
20752;BME280;10536;51.582;5.016;2022-10-16T16:58:56;101589.25;;;20.19;100.00
20752;BME280;10536;51.582;5.016;2022-10-16T17:03:58;101593.31;;;20.06;100.00
20752;BME280;10536;51.582;5.016;2022-10-16T17:09:01;101586.47;;;19.80;100.00
20752;BME280;10536;51.582;5.016;2022-10-16T17:14:03;101589.38;;;19.72;100.00
20752;BME280;10536;51.582;5.016;2022-10-16T17:19:08;101591.97;;;19.73;100.00
20752;BME280;10536;51.582;5.016;2022-10-16T17:24:10;101594.25;;;19.59;100.00
20752;BME280;10536;51.582;5.016;2022-10-16T17:29:11;101592.19;;;19.89;100.00
20752;BME280;10536;51.582;5.016;2022-10-16T17:34:12;101576.19;;;19.96;100.00
20752;BME280;10536;51.582;5.016;2022-10-16T17:39:15;101581.44;;;19.96;100.00
20752;BME280;10536;51.582;5.016;2022-10-16T17:44:19;101590.84;;;20.01;100.00
20752;BME280;10536;51.582;5.016;2022-10-16T17:49:20;101606.50;;;20.04;100.00
20752;BME280;10536;51.582;5.016;2022-10-16T17:54:20;101602.09;;;19.83;100.00
20752;BME280;10536;51.582;5.016;2022-10-16T17:59:21;101627.13;;;19.68;100.00
20752;BME280;10536;51.582;5.016;2022-10-16T18:04:22;101640.97;;;19.73;100.00
20752;BME280;10536;51.582;5.016;2022-10-16T18:09:22;101668.03;;;19.75;100.00
20752;BME280;10536;51.582;5.016;2022-10-16T18:14:23;101681.28;;;19.47;100.00
20752;BME280;10536;51.582;5.016;2022-10-16T18:19:24;101681.63;;;19.61;100.00
20752;BME280;10536;51.582;5.016;2022-10-16T18:24:27;101677.78;;;19.71;100.00
20752;BME280;10536;51.582;5.016;2022-10-16T18:29:27;101666.28;;;19.74;100.00
20752;BME280;10536;51.582;5.016;2022-10-16T18:34:28;101658.53;;;19.47;100.00
20752;BME280;10536;51.582;5.016;2022-10-16T18:39:28;101653.81;;;19.57;100.00
20752;BME280;10536;51.582;5.016;2022-10-16T18:44:28;101661.50;;;19.62;100.00
20752;BME280;10536;51.582;5.016;2022-10-16T18:49:30;101656.78;;;19.71;100.00
20752;BME280;10536;51.582;5.016;2022-10-16T18:54:31;101666.31;;;19.49;100.00
20752;BME280;10536;51.582;5.016;2022-10-16T18:59:31;101676.50;;;19.58;100.00
20752;BME280;10536;51.582;5.016;2022-10-16T19:04:32;101671.47;;;19.52;100.00
20752;BME280;10536;51.582;5.016;2022-10-16T19:09:32;101671.00;;;19.64;100.00
20752;BME280;10536;51.582;5.016;2022-10-16T19:14:33;101677.84;;;19.45;100.00
20752;BME280;10536;51.582;5.016;2022-10-16T19:19:33;101662.47;;;19.36;100.00
20752;BME280;10536;51.582;5.016;2022-10-16T19:24:34;101684.81;;;19.46;100.00
20752;BME280;10536;51.582;5.016;2022-10-16T19:29:34;101690.31;;;19.63;100.00
20752;BME280;10536;51.582;5.016;2022-10-16T19:34:35;101686.94;;;19.36;100.00
20752;BME280;10536;51.582;5.016;2022-10-16T19:39:35;101679.22;;;19.31;100.00
20752;BME280;10536;51.582;5.016;2022-10-16T19:44:36;101674.41;;;19.19;100.00
20752;BME280;10536;51.582;5.016;2022-10-16T19:49:36;101675.06;;;19.26;100.00
20752;BME280;10536;51.582;5.016;2022-10-16T19:54:37;101667.19;;;19.01;100.00
20752;BME280;10536;51.582;5.016;2022-10-16T19:59:38;101655.69;;;19.05;100.00
20752;BME280;10536;51.582;5.016;2022-10-16T20:04:38;101658.91;;;19.13;100.00
20752;BME280;10536;51.582;5.016;2022-10-16T20:09:39;101654.50;;;19.13;100.00
20752;BME280;10536;51.582;5.016;2022-10-16T20:14:40;101654.72;;;19.07;100.00
20752;BME280;10536;51.582;5.016;2022-10-16T20:19:40;101656.69;;;19.26;100.00
20752;BME280;10536;51.582;5.016;2022-10-16T20:24:41;101651.81;;;19.15;100.00
20752;BME280;10536;51.582;5.016;2022-10-16T20:29:42;101655.50;;;19.34;100.00
20752;BME280;10536;51.582;5.016;2022-10-16T20:34:45;101657.78;;;19.44;100.00
20752;BME280;10536;51.582;5.016;2022-10-16T20:39:48;101654.78;;;19.29;100.00
20752;BME280;10536;51.582;5.016;2022-10-16T20:44:49;101655.03;;;19.23;100.00
20752;BME280;10536;51.582;5.016;2022-10-16T20:49:51;101634.41;;;19.38;100.00
20752;BME280;10536;51.582;5.016;2022-10-16T20:54:52;101639.50;;;19.17;100.00
20752;BME280;10536;51.582;5.016;2022-10-16T20:59:52;101653.56;;;19.16;100.00
20752;BME280;10536;51.582;5.016;2022-10-16T21:04:54;101642.50;;;19.31;100.00
20752;BME280;10536;51.582;5.016;2022-10-16T21:09:55;101643.31;;;19.57;100.00
20752;BME280;10536;51.582;5.016;2022-10-16T21:14:56;101640.16;;;19.47;100.00
20752;BME280;10536;51.582;5.016;2022-10-16T21:19:56;101636.00;;;19.42;100.00
20752;BME280;10536;51.582;5.016;2022-10-16T21:24:57;101633.72;;;19.32;100.00
20752;BME280;10536;51.582;5.016;2022-10-16T21:29:57;101614.22;;;19.40;100.00
20752;BME280;10536;51.582;5.016;2022-10-16T21:34:58;101616.59;;;19.22;100.00
20752;BME280;10536;51.582;5.016;2022-10-16T21:39:58;101620.78;;;18.78;100.00
20752;BME280;10536;51.582;5.016;2022-10-16T21:44:59;101613.81;;;18.77;100.00
20752;BME280;10536;51.582;5.016;2022-10-16T21:49:59;101620.03;;;18.74;100.00
20752;BME280;10536;51.582;5.016;2022-10-16T21:54:59;101608.34;;;18.84;100.00
20752;BME280;10536;51.582;5.016;2022-10-16T22:00:00;101609.13;;;18.86;100.00
20752;BME280;10536;51.582;5.016;2022-10-16T22:05:01;101607.69;;;18.51;100.00
20752;BME280;10536;51.582;5.016;2022-10-16T22:10:01;101604.34;;;18.72;100.00
20752;BME280;10536;51.582;5.016;2022-10-16T22:15:02;101620.59;;;18.57;100.00
20752;BME280;10536;51.582;5.016;2022-10-16T22:20:03;101617.44;;;18.47;100.00
20752;BME280;10536;51.582;5.016;2022-10-16T22:25:04;101613.88;;;18.23;100.00
20752;BME280;10536;51.582;5.016;2022-10-16T22:30:04;101615.59;;;18.24;100.00
20752;BME280;10536;51.582;5.016;2022-10-16T22:35:05;101608.59;;;18.25;100.00
20752;BME280;10536;51.582;5.016;2022-10-16T22:40:07;101612.78;;;18.02;100.00
20752;BME280;10536;51.582;5.016;2022-10-16T22:45:07;101607.53;;;18.02;100.00
20752;BME280;10536;51.582;5.016;2022-10-16T22:50:08;101607.53;;;18.02;100.00
20752;BME280;10536;51.582;5.016;2022-10-16T22:55:08;101596.69;;;18.14;100.00
20752;BME280;10536;51.582;5.016;2022-10-16T23:00:11;101593.16;;;18.15;100.00
20752;BME280;10536;51.582;5.016;2022-10-16T23:05:13;101596.47;;;18.99;100.00
20752;BME280;10536;51.582;5.016;2022-10-16T23:10:14;101573.91;;;18.43;100.00
20752;BME280;10536;51.582;5.016;2022-10-16T23:15:16;101581.09;;;18.63;100.00
20752;BME280;10536;51.582;5.016;2022-10-16T23:20:17;101575.50;;;18.22;100.00
20752;BME280;10536;51.582;5.016;2022-10-16T23:25:17;101567.56;;;18.24;100.00
20752;BME280;10536;51.582;5.016;2022-10-16T23:30:17;101569.94;;;18.31;100.00
20752;BME280;10536;51.582;5.016;2022-10-16T23:35:18;101558.78;;;18.26;100.00
20752;BME280;10536;51.582;5.016;2022-10-16T23:40:18;101551.09;;;18.47;100.00
20752;BME280;10536;51.582;5.016;2022-10-16T23:45:19;101561.31;;;18.54;100.00
20752;BME280;10536;51.582;5.016;2022-10-16T23:50:19;101572.06;;;18.72;100.00
20752;BME280;10536;51.582;5.016;2022-10-16T23:55:20;101565.03;;;18.47;100.00
